sensor_id;sensor_type;location;lat;lon;timestamp;P1;durP1;ratioP1;P2;durP2;ratioP2
12908;SDS011;6522;49.622;6.126;2022-12-18T00:00:48;32.75;;;22.15;;
12908;SDS011;6522;49.622;6.126;2022-12-18T00:03:35;27.65;;;17.73;;
12908;SDS011;6522;49.622;6.126;2022-12-18T00:06:21;37.78;;;19.85;;
12908;SDS011;6522;49.622;6.126;2022-12-18T00:09:08;40.00;;;26.40;;
12908;SDS011;6522;49.622;6.126;2022-12-18T00:11:55;39.42;;;25.75;;
12908;SDS011;6522;49.622;6.126;2022-12-18T00:14:41;38.15;;;21.70;;
12908;SDS011;6522;49.622;6.126;2022-12-18T00:17:28;32.22;;;21.08;;
12908;SDS011;6522;49.622;6.126;2022-12-18T00:20:15;22.25;;;17.37;;
12908;SDS011;6522;49.622;6.126;2022-12-18T00:23:02;33.28;;;19.40;;
12908;SDS011;6522;49.622;6.126;2022-12-18T00:25:48;27.95;;;18.87;;
12908;SDS011;6522;49.622;6.126;2022-12-18T00:28:35;34.60;;;21.23;;
12908;SDS011;6522;49.622;6.126;2022-12-18T00:31:22;30.77;;;20.33;;
12908;SDS011;6522;49.622;6.126;2022-12-18T00:34:09;34.33;;;18.92;;
12908;SDS011;6522;49.622;6.126;2022-12-18T00:36:54;35.72;;;23.20;;
12908;SDS011;6522;49.622;6.126;2022-12-18T00:39:41;28.02;;;21.00;;
12908;SDS011;6522;49.622;6.126;2022-12-18T00:42:28;29.52;;;19.40;;
12908;SDS011;6522;49.622;6.126;2022-12-18T00:45:33;30.73;;;20.30;;
12908;SDS011;6522;49.622;6.126;2022-12-18T00:48:20;39.45;;;21.02;;
12908;SDS011;6522;49.622;6.126;2022-12-18T00:51:07;33.03;;;22.87;;
12908;SDS011;6522;49.622;6.126;2022-12-18T00:53:54;37.08;;;19.87;;
12908;SDS011;6522;49.622;6.126;2022-12-18T00:56:41;31.25;;;21.67;;
12908;SDS011;6522;49.622;6.126;2022-12-18T00:59:27;28.05;;;19.40;;
12908;SDS011;6522;49.622;6.126;2022-12-18T01:02:14;37.13;;;21.77;;
12908;SDS011;6522;49.622;6.126;2022-12-18T01:05:01;25.08;;;17.75;;
12908;SDS011;6522;49.622;6.126;2022-12-18T01:07:48;25.12;;;17.62;;
12908;SDS011;6522;49.622;6.126;2022-12-18T01:10:34;24.58;;;18.05;;
12908;SDS011;6522;49.622;6.126;2022-12-18T01:13:21;27.05;;;17.65;;
12908;SDS011;6522;49.622;6.126;2022-12-18T01:16:08;32.25;;;19.40;;
12908;SDS011;6522;49.622;6.126;2022-12-18T01:18:55;24.92;;;14.93;;
12908;SDS011;6522;49.622;6.126;2022-12-18T01:21:41;27.20;;;18.20;;
12908;SDS011;6522;49.622;6.126;2022-12-18T01:24:28;37.33;;;23.20;;
12908;SDS011;6522;49.622;6.126;2022-12-18T01:27:14;33.83;;;23.08;;
12908;SDS011;6522;49.622;6.126;2022-12-18T01:30:01;35.08;;;21.58;;
12908;SDS011;6522;49.622;6.126;2022-12-18T01:32:48;27.83;;;18.55;;
12908;SDS011;6522;49.622;6.126;2022-12-18T01:35:39;32.75;;;22.50;;
12908;SDS011;6522;49.622;6.126;2022-12-18T01:38:22;29.58;;;21.67;;
12908;SDS011;6522;49.622;6.126;2022-12-18T01:41:08;28.27;;;19.35;;
12908;SDS011;6522;49.622;6.126;2022-12-18T01:43:56;25.60;;;19.37;;
12908;SDS011;6522;49.622;6.126;2022-12-18T01:46:42;21.42;;;17.00;;
12908;SDS011;6522;49.622;6.126;2022-12-18T01:49:29;30.67;;;21.42;;
12908;SDS011;6522;49.622;6.126;2022-12-18T01:52:15;24.90;;;16.67;;
12908;SDS011;6522;49.622;6.126;2022-12-18T01:55:03;23.20;;;15.57;;
12908;SDS011;6522;49.622;6.126;2022-12-18T01:57:49;27.33;;;16.50;;
12908;SDS011;6522;49.622;6.126;2022-12-18T02:00:36;25.58;;;16.33;;
12908;SDS011;6522;49.622;6.126;2022-12-18T02:03:23;29.33;;;16.90;;
12908;SDS011;6522;49.622;6.126;2022-12-18T02:06:15;23.10;;;15.93;;
12908;SDS011;6522;49.622;6.126;2022-12-18T02:09:07;21.42;;;15.55;;
12908;SDS011;6522;49.622;6.126;2022-12-18T02:11:53;22.30;;;15.55;;
12908;SDS011;6522;49.622;6.126;2022-12-18T02:14:45;23.95;;;15.02;;
12908;SDS011;6522;49.622;6.126;2022-12-18T02:17:52;29.58;;;16.73;;
12908;SDS011;6522;49.622;6.126;2022-12-18T02:20:35;27.73;;;20.70;;
12908;SDS011;6522;49.622;6.126;2022-12-18T02:23:43;28.27;;;20.12;;
12908;SDS011;6522;49.622;6.126;2022-12-18T02:29:06;25.83;;;15.73;;
12908;SDS011;6522;49.622;6.126;2022-12-18T02:31:52;17.92;;;15.05;;
12908;SDS011;6522;49.622;6.126;2022-12-18T02:34:39;26.17;;;17.80;;
12908;SDS011;6522;49.622;6.126;2022-12-18T02:37:25;23.85;;;19.65;;
12908;SDS011;6522;49.622;6.126;2022-12-18T02:40:12;23.08;;;16.20;;
12908;SDS011;6522;49.622;6.126;2022-12-18T02:43:03;21.55;;;16.87;;
12908;SDS011;6522;49.622;6.126;2022-12-18T02:45:53;19.87;;;15.45;;
12908;SDS011;6522;49.622;6.126;2022-12-18T02:48:39;23.75;;;16.30;;
12908;SDS011;6522;49.622;6.126;2022-12-18T02:57:14;27.23;;;18.00;;
12908;SDS011;6522;49.622;6.126;2022-12-18T03:00:41;24.10;;;14.43;;
12908;SDS011;6522;49.622;6.126;2022-12-18T03:02:55;19.42;;;15.00;;
12908;SDS011;6522;49.622;6.126;2022-12-18T03:06:04;20.73;;;13.82;;
12908;SDS011;6522;49.622;6.126;2022-12-18T03:08:31;23.05;;;15.20;;
12908;SDS011;6522;49.622;6.126;2022-12-18T03:11:16;24.08;;;17.05;;
12908;SDS011;6522;49.622;6.126;2022-12-18T03:14:03;31.23;;;20.45;;
12908;SDS011;6522;49.622;6.126;2022-12-18T03:16:50;23.65;;;18.70;;
12908;SDS011;6522;49.622;6.126;2022-12-18T03:19:37;33.75;;;21.15;;
12908;SDS011;6522;49.622;6.126;2022-12-18T03:22:24;25.37;;;17.85;;
12908;SDS011;6522;49.622;6.126;2022-12-18T03:25:11;25.27;;;16.52;;
12908;SDS011;6522;49.622;6.126;2022-12-18T03:27:58;25.70;;;17.10;;
12908;SDS011;6522;49.622;6.126;2022-12-18T03:30:44;25.15;;;17.02;;
12908;SDS011;6522;49.622;6.126;2022-12-18T03:33:32;24.05;;;16.90;;
12908;SDS011;6522;49.622;6.126;2022-12-18T03:36:17;24.73;;;16.40;;
12908;SDS011;6522;49.622;6.126;2022-12-18T03:39:04;22.40;;;15.82;;
12908;SDS011;6522;49.622;6.126;2022-12-18T03:41:51;26.87;;;18.62;;
12908;SDS011;6522;49.622;6.126;2022-12-18T03:44:43;22.90;;;14.73;;
12908;SDS011;6522;49.622;6.126;2022-12-18T03:50:18;26.12;;;17.17;;
12908;SDS011;6522;49.622;6.126;2022-12-18T03:53:25;25.60;;;16.05;;
12908;SDS011;6522;49.622;6.126;2022-12-18T03:56:09;22.30;;;14.98;;
12908;SDS011;6522;49.622;6.126;2022-12-18T03:58:56;31.15;;;20.17;;
12908;SDS011;6522;49.622;6.126;2022-12-18T04:01:45;25.65;;;19.12;;
12908;SDS011;6522;49.622;6.126;2022-12-18T04:04:29;19.58;;;15.00;;
12908;SDS011;6522;49.622;6.126;2022-12-18T04:07:16;21.55;;;15.95;;
12908;SDS011;6522;49.622;6.126;2022-12-18T04:10:02;24.80;;;15.55;;
12908;SDS011;6522;49.622;6.126;2022-12-18T04:12:49;26.58;;;16.92;;
12908;SDS011;6522;49.622;6.126;2022-12-18T04:15:36;24.87;;;16.25;;
12908;SDS011;6522;49.622;6.126;2022-12-18T04:18:23;20.30;;;14.18;;
12908;SDS011;6522;49.622;6.126;2022-12-18T04:21:10;25.35;;;13.43;;
12908;SDS011;6522;49.622;6.126;2022-12-18T04:23:57;21.33;;;14.60;;
12908;SDS011;6522;49.622;6.126;2022-12-18T04:26:43;22.83;;;14.57;;
12908;SDS011;6522;49.622;6.126;2022-12-18T04:29:30;20.88;;;13.45;;
12908;SDS011;6522;49.622;6.126;2022-12-18T04:32:17;20.17;;;14.70;;
12908;SDS011;6522;49.622;6.126;2022-12-18T04:35:04;23.67;;;15.90;;
12908;SDS011;6522;49.622;6.126;2022-12-18T04:37:51;24.23;;;14.00;;
12908;SDS011;6522;49.622;6.126;2022-12-18T04:40:37;19.73;;;14.00;;
12908;SDS011;6522;49.622;6.126;2022-12-18T04:43:24;25.65;;;16.15;;
12908;SDS011;6522;49.622;6.126;2022-12-18T04:46:10;24.20;;;16.75;;
12908;SDS011;6522;49.622;6.126;2022-12-18T04:48:57;21.00;;;15.32;;
12908;SDS011;6522;49.622;6.126;2022-12-18T04:51:44;21.87;;;14.00;;
12908;SDS011;6522;49.622;6.126;2022-12-18T04:54:31;17.85;;;15.23;;
12908;SDS011;6522;49.622;6.126;2022-12-18T04:57:18;19.52;;;14.85;;
12908;SDS011;6522;49.622;6.126;2022-12-18T05:00:05;21.02;;;15.35;;
12908;SDS011;6522;49.622;6.126;2022-12-18T05:02:52;20.35;;;15.13;;
12908;SDS011;6522;49.622;6.126;2022-12-18T05:05:39;23.42;;;14.68;;
12908;SDS011;6522;49.622;6.126;2022-12-18T05:08:26;20.50;;;15.20;;
12908;SDS011;6522;49.622;6.126;2022-12-18T05:11:13;21.50;;;15.30;;
12908;SDS011;6522;49.622;6.126;2022-12-18T05:13:59;23.38;;;16.58;;
12908;SDS011;6522;49.622;6.126;2022-12-18T05:16:45;30.10;;;18.95;;
12908;SDS011;6522;49.622;6.126;2022-12-18T05:19:32;26.35;;;14.85;;
12908;SDS011;6522;49.622;6.126;2022-12-18T05:22:19;25.35;;;16.50;;
12908;SDS011;6522;49.622;6.126;2022-12-18T05:25:06;28.67;;;17.33;;
12908;SDS011;6522;49.622;6.126;2022-12-18T05:27:53;18.73;;;14.02;;
12908;SDS011;6522;49.622;6.126;2022-12-18T05:30:40;17.90;;;14.02;;
12908;SDS011;6522;49.622;6.126;2022-12-18T05:33:27;29.20;;;15.32;;
12908;SDS011;6522;49.622;6.126;2022-12-18T05:36:13;22.48;;;15.10;;
12908;SDS011;6522;49.622;6.126;2022-12-18T05:38:59;21.75;;;15.20;;
12908;SDS011;6522;49.622;6.126;2022-12-18T05:41:46;24.02;;;14.52;;
12908;SDS011;6522;49.622;6.126;2022-12-18T05:44:33;25.20;;;14.73;;
12908;SDS011;6522;49.622;6.126;2022-12-18T05:47:20;23.83;;;16.33;;
12908;SDS011;6522;49.622;6.126;2022-12-18T05:50:07;23.10;;;15.32;;
12908;SDS011;6522;49.622;6.126;2022-12-18T05:52:53;19.25;;;15.70;;
12908;SDS011;6522;49.622;6.126;2022-12-18T05:55:41;19.42;;;15.25;;
12908;SDS011;6522;49.622;6.126;2022-12-18T05:58:27;24.40;;;17.67;;
12908;SDS011;6522;49.622;6.126;2022-12-18T06:01:17;22.75;;;15.18;;
12908;SDS011;6522;49.622;6.126;2022-12-18T06:04:00;21.75;;;16.62;;
12908;SDS011;6522;49.622;6.126;2022-12-18T06:06:47;20.98;;;14.45;;
12908;SDS011;6522;49.622;6.126;2022-12-18T06:09:34;21.95;;;17.45;;
12908;SDS011;6522;49.622;6.126;2022-12-18T06:12:21;24.02;;;15.98;;
12908;SDS011;6522;49.622;6.126;2022-12-18T06:15:08;26.60;;;19.98;;
12908;SDS011;6522;49.622;6.126;2022-12-18T06:17:54;26.98;;;18.80;;
12908;SDS011;6522;49.622;6.126;2022-12-18T06:20:41;23.65;;;17.40;;
12908;SDS011;6522;49.622;6.126;2022-12-18T06:23:28;23.48;;;17.23;;
12908;SDS011;6522;49.622;6.126;2022-12-18T06:26:14;21.08;;;17.00;;
12908;SDS011;6522;49.622;6.126;2022-12-18T06:29:01;20.73;;;17.17;;
12908;SDS011;6522;49.622;6.126;2022-12-18T06:31:48;20.88;;;15.93;;
12908;SDS011;6522;49.622;6.126;2022-12-18T06:34:36;22.35;;;16.37;;
12908;SDS011;6522;49.622;6.126;2022-12-18T06:37:21;25.62;;;16.95;;
12908;SDS011;6522;49.622;6.126;2022-12-18T06:40:08;21.70;;;16.15;;
12908;SDS011;6522;49.622;6.126;2022-12-18T06:42:55;17.87;;;12.77;;
12908;SDS011;6522;49.622;6.126;2022-12-18T06:45:41;21.15;;;15.50;;
12908;SDS011;6522;49.622;6.126;2022-12-18T06:48:28;27.83;;;16.67;;
12908;SDS011;6522;49.622;6.126;2022-12-18T06:51:19;23.85;;;15.15;;
12908;SDS011;6522;49.622;6.126;2022-12-18T06:54:04;25.70;;;16.98;;
12908;SDS011;6522;49.622;6.126;2022-12-18T06:56:51;28.83;;;18.58;;
12908;SDS011;6522;49.622;6.126;2022-12-18T06:59:37;23.58;;;15.07;;
12908;SDS011;6522;49.622;6.126;2022-12-18T07:02:24;24.65;;;17.77;;
12908;SDS011;6522;49.622;6.126;2022-12-18T07:05:11;30.25;;;17.25;;
12908;SDS011;6522;49.622;6.126;2022-12-18T07:07:57;23.92;;;18.25;;
12908;SDS011;6522;49.622;6.126;2022-12-18T07:10:44;31.48;;;20.40;;
12908;SDS011;6522;49.622;6.126;2022-12-18T07:13:31;28.98;;;19.77;;
12908;SDS011;6522;49.622;6.126;2022-12-18T07:16:18;34.65;;;22.87;;
12908;SDS011;6522;49.622;6.126;2022-12-18T07:19:05;36.92;;;24.60;;
12908;SDS011;6522;49.622;6.126;2022-12-18T07:21:51;32.53;;;23.15;;
12908;SDS011;6522;49.622;6.126;2022-12-18T07:24:38;35.70;;;25.87;;
12908;SDS011;6522;49.622;6.126;2022-12-18T07:27:25;35.75;;;25.35;;
12908;SDS011;6522;49.622;6.126;2022-12-18T07:30:12;29.73;;;21.73;;
12908;SDS011;6522;49.622;6.126;2022-12-18T07:32:59;32.20;;;20.98;;
12908;SDS011;6522;49.622;6.126;2022-12-18T07:35:45;34.03;;;23.48;;
12908;SDS011;6522;49.622;6.126;2022-12-18T07:38:33;37.17;;;27.02;;
12908;SDS011;6522;49.622;6.126;2022-12-18T07:41:19;34.78;;;22.35;;
12908;SDS011;6522;49.622;6.126;2022-12-18T07:44:08;35.38;;;23.65;;
12908;SDS011;6522;49.622;6.126;2022-12-18T07:46:53;37.47;;;22.75;;
12908;SDS011;6522;49.622;6.126;2022-12-18T07:49:39;38.22;;;21.75;;
12908;SDS011;6522;49.622;6.126;2022-12-18T07:52:26;31.48;;;22.50;;
12908;SDS011;6522;49.622;6.126;2022-12-18T07:55:13;35.75;;;22.75;;
12908;SDS011;6522;49.622;6.126;2022-12-18T07:58:00;34.88;;;21.98;;
12908;SDS011;6522;49.622;6.126;2022-12-18T08:00:47;36.83;;;23.10;;
12908;SDS011;6522;49.622;6.126;2022-12-18T08:03:33;44.42;;;24.83;;
12908;SDS011;6522;49.622;6.126;2022-12-18T08:06:20;37.97;;;24.65;;
12908;SDS011;6522;49.622;6.126;2022-12-18T08:09:07;34.65;;;23.95;;
12908;SDS011;6522;49.622;6.126;2022-12-18T08:11:53;49.00;;;31.62;;
12908;SDS011;6522;49.622;6.126;2022-12-18T08:14:40;42.30;;;26.35;;
12908;SDS011;6522;49.622;6.126;2022-12-18T08:17:27;39.38;;;22.90;;
12908;SDS011;6522;49.622;6.126;2022-12-18T08:20:14;43.10;;;24.33;;
12908;SDS011;6522;49.622;6.126;2022-12-18T08:23:01;44.42;;;28.15;;
12908;SDS011;6522;49.622;6.126;2022-12-18T08:25:48;42.53;;;25.77;;
12908;SDS011;6522;49.622;6.126;2022-12-18T08:28:34;45.95;;;25.30;;
12908;SDS011;6522;49.622;6.126;2022-12-18T08:31:21;47.50;;;33.42;;
12908;SDS011;6522;49.622;6.126;2022-12-18T08:34:08;44.25;;;31.80;;
12908;SDS011;6522;49.622;6.126;2022-12-18T08:36:54;43.53;;;26.50;;
12908;SDS011;6522;49.622;6.126;2022-12-18T08:39:41;49.63;;;32.75;;
12908;SDS011;6522;49.622;6.126;2022-12-18T08:42:28;46.97;;;28.70;;
12908;SDS011;6522;49.622;6.126;2022-12-18T08:45:33;43.42;;;27.52;;
12908;SDS011;6522;49.622;6.126;2022-12-18T08:48:20;39.70;;;29.02;;
12908;SDS011;6522;49.622;6.126;2022-12-18T08:51:06;45.40;;;26.10;;
12908;SDS011;6522;49.622;6.126;2022-12-18T08:53:53;43.80;;;27.67;;
12908;SDS011;6522;49.622;6.126;2022-12-18T08:56:39;50.40;;;31.73;;
12908;SDS011;6522;49.622;6.126;2022-12-18T08:59:26;40.08;;;27.35;;
12908;SDS011;6522;49.622;6.126;2022-12-18T09:02:13;47.42;;;32.00;;
12908;SDS011;6522;49.622;6.126;2022-12-18T09:05:00;45.20;;;29.75;;
12908;SDS011;6522;49.622;6.126;2022-12-18T09:07:46;47.53;;;31.92;;
12908;SDS011;6522;49.622;6.126;2022-12-18T09:10:33;41.33;;;33.55;;
12908;SDS011;6522;49.622;6.126;2022-12-18T09:13:19;39.05;;;28.48;;
12908;SDS011;6522;49.622;6.126;2022-12-18T09:16:06;44.28;;;29.12;;
12908;SDS011;6522;49.622;6.126;2022-12-18T09:18:52;36.38;;;28.62;;
12908;SDS011;6522;49.622;6.126;2022-12-18T09:21:39;40.10;;;29.83;;
12908;SDS011;6522;49.622;6.126;2022-12-18T09:24:26;35.95;;;27.58;;
12908;SDS011;6522;49.622;6.126;2022-12-18T09:27:12;29.87;;;24.48;;
12908;SDS011;6522;49.622;6.126;2022-12-18T09:29:59;41.95;;;29.25;;
12908;SDS011;6522;49.622;6.126;2022-12-18T09:32:46;38.92;;;27.10;;
12908;SDS011;6522;49.622;6.126;2022-12-18T09:35:35;49.95;;;30.77;;
12908;SDS011;6522;49.622;6.126;2022-12-18T09:38:19;44.08;;;29.67;;
12908;SDS011;6522;49.622;6.126;2022-12-18T09:41:15;37.92;;;29.50;;
12908;SDS011;6522;49.622;6.126;2022-12-18T09:47:02;40.78;;;33.22;;
12908;SDS011;6522;49.622;6.126;2022-12-18T09:49:45;37.92;;;34.05;;
12908;SDS011;6522;49.622;6.126;2022-12-18T09:52:37;35.97;;;32.10;;
12908;SDS011;6522;49.622;6.126;2022-12-18T09:55:25;36.80;;;33.10;;
12908;SDS011;6522;49.622;6.126;2022-12-18T09:58:19;39.80;;;34.20;;
12908;SDS011;6522;49.622;6.126;2022-12-18T10:01:09;37.90;;;34.03;;
12908;SDS011;6522;49.622;6.126;2022-12-18T10:03:50;35.78;;;31.98;;
12908;SDS011;6522;49.622;6.126;2022-12-18T10:06:39;34.97;;;31.23;;
12908;SDS011;6522;49.622;6.126;2022-12-18T10:12:29;35.42;;;31.83;;
12908;SDS011;6522;49.622;6.126;2022-12-18T10:15:14;36.20;;;31.62;;
12908;SDS011;6522;49.622;6.126;2022-12-18T10:18:06;36.50;;;31.17;;
12908;SDS011;6522;49.622;6.126;2022-12-18T10:20:50;41.25;;;36.33;;
12908;SDS011;6522;49.622;6.126;2022-12-18T10:23:39;32.85;;;24.92;;
12908;SDS011;6522;49.622;6.126;2022-12-18T10:26:22;40.50;;;36.22;;
12908;SDS011;6522;49.622;6.126;2022-12-18T10:29:13;39.42;;;35.25;;
12908;SDS011;6522;49.622;6.126;2022-12-18T10:31:59;42.05;;;37.85;;
12908;SDS011;6522;49.622;6.126;2022-12-18T10:34:46;38.55;;;34.70;;
12908;SDS011;6522;49.622;6.126;2022-12-18T10:37:32;40.22;;;36.05;;
12908;SDS011;6522;49.622;6.126;2022-12-18T10:40:19;36.22;;;25.67;;
12908;SDS011;6522;49.622;6.126;2022-12-18T10:43:16;41.08;;;36.78;;
12908;SDS011;6522;49.622;6.126;2022-12-18T10:51:35;38.63;;;34.80;;
12908;SDS011;6522;49.622;6.126;2022-12-18T10:54:22;39.22;;;34.88;;
12908;SDS011;6522;49.622;6.126;2022-12-18T10:57:15;41.28;;;37.00;;
12908;SDS011;6522;49.622;6.126;2022-12-18T11:03:00;39.10;;;34.22;;
12908;SDS011;6522;49.622;6.126;2022-12-18T11:05:47;40.33;;;34.45;;
12908;SDS011;6522;49.622;6.126;2022-12-18T11:08:34;36.78;;;31.55;;
12908;SDS011;6522;49.622;6.126;2022-12-18T11:11:21;39.70;;;35.58;;
12908;SDS011;6522;49.622;6.126;2022-12-18T11:14:27;41.65;;;37.25;;
12908;SDS011;6522;49.622;6.126;2022-12-18T11:16:57;37.53;;;31.37;;
12908;SDS011;6522;49.622;6.126;2022-12-18T11:19:43;38.55;;;34.60;;
12908;SDS011;6522;49.622;6.126;2022-12-18T11:22:31;41.97;;;37.53;;
12908;SDS011;6522;49.622;6.126;2022-12-18T11:25:18;43.58;;;39.42;;
12908;SDS011;6522;49.622;6.126;2022-12-18T11:28:04;37.15;;;32.95;;
12908;SDS011;6522;49.622;6.126;2022-12-18T11:30:52;41.90;;;32.55;;
12908;SDS011;6522;49.622;6.126;2022-12-18T11:33:37;39.30;;;34.13;;
12908;SDS011;6522;49.622;6.126;2022-12-18T11:36:24;47.30;;;33.92;;
12908;SDS011;6522;49.622;6.126;2022-12-18T11:39:18;40.25;;;35.60;;
12908;SDS011;6522;49.622;6.126;2022-12-18T11:42:04;42.55;;;36.75;;
12908;SDS011;6522;49.622;6.126;2022-12-18T11:45:01;43.00;;;35.85;;
12908;SDS011;6522;49.622;6.126;2022-12-18T11:47:55;37.17;;;32.92;;
12908;SDS011;6522;49.622;6.126;2022-12-18T11:50:47;39.53;;;33.35;;
12908;SDS011;6522;49.622;6.126;2022-12-18T11:53:29;41.72;;;32.30;;
12908;SDS011;6522;49.622;6.126;2022-12-18T12:02:26;39.55;;;33.70;;
12908;SDS011;6522;49.622;6.126;2022-12-18T12:11:23;38.60;;;30.05;;
12908;SDS011;6522;49.622;6.126;2022-12-18T12:17:04;45.22;;;36.78;;
12908;SDS011;6522;49.622;6.126;2022-12-18T12:22:57;38.13;;;29.90;;
12908;SDS011;6522;49.622;6.126;2022-12-18T12:31:52;37.63;;;33.28;;
12908;SDS011;6522;49.622;6.126;2022-12-18T12:34:48;38.28;;;33.22;;
12908;SDS011;6522;49.622;6.126;2022-12-18T12:37:29;37.80;;;31.90;;
12908;SDS011;6522;49.622;6.126;2022-12-18T12:40:12;33.75;;;30.25;;
12908;SDS011;6522;49.622;6.126;2022-12-18T12:43:04;43.25;;;32.05;;
12908;SDS011;6522;49.622;6.126;2022-12-18T12:46:00;38.75;;;33.40;;
12908;SDS011;6522;49.622;6.126;2022-12-18T12:48:54;40.72;;;36.20;;
12908;SDS011;6522;49.622;6.126;2022-12-18T12:51:41;42.30;;;35.05;;
12908;SDS011;6522;49.622;6.126;2022-12-18T12:54:27;41.35;;;36.70;;
12908;SDS011;6522;49.622;6.126;2022-12-18T12:57:21;49.35;;;35.28;;
12908;SDS011;6522;49.622;6.126;2022-12-18T13:00:11;39.17;;;26.90;;
12908;SDS011;6522;49.622;6.126;2022-12-18T13:03:03;44.25;;;36.58;;
12908;SDS011;6522;49.622;6.126;2022-12-18T13:05:54;48.42;;;35.50;;
12908;SDS011;6522;49.622;6.126;2022-12-18T13:08:53;45.83;;;36.05;;
12908;SDS011;6522;49.622;6.126;2022-12-18T13:11:39;42.90;;;31.52;;
12908;SDS011;6522;49.622;6.126;2022-12-18T13:14:43;46.65;;;34.75;;
12908;SDS011;6522;49.622;6.126;2022-12-18T13:17:30;40.92;;;31.65;;
12908;SDS011;6522;49.622;6.126;2022-12-18T13:20:16;37.78;;;31.10;;
12908;SDS011;6522;49.622;6.126;2022-12-18T13:28:52;44.17;;;36.03;;
12908;SDS011;6522;49.622;6.126;2022-12-18T13:34:27;40.58;;;31.52;;
12908;SDS011;6522;49.622;6.126;2022-12-18T13:43:26;48.28;;;33.45;;
12908;SDS011;6522;49.622;6.126;2022-12-18T13:46:29;48.13;;;31.90;;
12908;SDS011;6522;49.622;6.126;2022-12-18T13:49:30;43.78;;;30.88;;
12908;SDS011;6522;49.622;6.126;2022-12-18T13:52:17;49.03;;;34.90;;
12908;SDS011;6522;49.622;6.126;2022-12-18T13:55:04;47.08;;;32.30;;
12908;SDS011;6522;49.622;6.126;2022-12-18T13:57:51;44.75;;;32.00;;
12908;SDS011;6522;49.622;6.126;2022-12-18T14:00:40;41.37;;;31.12;;
12908;SDS011;6522;49.622;6.126;2022-12-18T14:03:26;50.63;;;34.88;;
12908;SDS011;6522;49.622;6.126;2022-12-18T14:06:11;44.10;;;30.52;;
12908;SDS011;6522;49.622;6.126;2022-12-18T14:08:58;54.55;;;33.35;;
12908;SDS011;6522;49.622;6.126;2022-12-18T14:11:48;42.80;;;33.53;;
12908;SDS011;6522;49.622;6.126;2022-12-18T14:14:34;48.75;;;33.22;;
12908;SDS011;6522;49.622;6.126;2022-12-18T14:17:21;54.75;;;31.70;;
12908;SDS011;6522;49.622;6.126;2022-12-18T14:20:12;53.47;;;34.70;;
12908;SDS011;6522;49.622;6.126;2022-12-18T14:22:55;51.47;;;32.03;;
12908;SDS011;6522;49.622;6.126;2022-12-18T14:25:45;54.92;;;34.17;;
12908;SDS011;6522;49.622;6.126;2022-12-18T14:28:28;48.60;;;32.58;;
12908;SDS011;6522;49.622;6.126;2022-12-18T14:31:18;45.90;;;29.05;;
12908;SDS011;6522;49.622;6.126;2022-12-18T14:34:07;43.08;;;30.67;;
12908;SDS011;6522;49.622;6.126;2022-12-18T14:36:52;43.55;;;31.08;;
12908;SDS011;6522;49.622;6.126;2022-12-18T14:39:38;50.88;;;34.25;;
12908;SDS011;6522;49.622;6.126;2022-12-18T14:42:28;49.15;;;30.40;;
12908;SDS011;6522;49.622;6.126;2022-12-18T14:45:46;50.67;;;29.30;;
12908;SDS011;6522;49.622;6.126;2022-12-18T14:48:08;57.47;;;37.60;;
12908;SDS011;6522;49.622;6.126;2022-12-18T14:51:05;60.70;;;38.13;;
12908;SDS011;6522;49.622;6.126;2022-12-18T14:53:54;53.08;;;35.13;;
12908;SDS011;6522;49.622;6.126;2022-12-18T14:56:46;55.67;;;35.63;;
12908;SDS011;6522;49.622;6.126;2022-12-18T14:59:32;51.00;;;33.25;;
12908;SDS011;6522;49.622;6.126;2022-12-18T15:02:26;58.15;;;36.28;;
12908;SDS011;6522;49.622;6.126;2022-12-18T15:07:59;57.40;;;36.88;;
12908;SDS011;6522;49.622;6.126;2022-12-18T15:10:46;53.10;;;32.90;;
12908;SDS011;6522;49.622;6.126;2022-12-18T15:13:32;54.28;;;34.05;;
12908;SDS011;6522;49.622;6.126;2022-12-18T15:16:19;48.63;;;35.30;;
12908;SDS011;6522;49.622;6.126;2022-12-18T15:19:07;58.50;;;34.78;;
12908;SDS011;6522;49.622;6.126;2022-12-18T15:21:53;51.33;;;35.05;;
12908;SDS011;6522;49.622;6.126;2022-12-18T15:24:40;51.42;;;34.72;;
12908;SDS011;6522;49.622;6.126;2022-12-18T15:27:28;50.03;;;33.25;;
12908;SDS011;6522;49.622;6.126;2022-12-18T15:30:18;53.10;;;35.45;;
12908;SDS011;6522;49.622;6.126;2022-12-18T15:33:17;50.75;;;34.08;;
12908;SDS011;6522;49.622;6.126;2022-12-18T15:36:04;48.45;;;31.92;;
12908;SDS011;6522;49.622;6.126;2022-12-18T15:38:50;53.58;;;34.83;;
12908;SDS011;6522;49.622;6.126;2022-12-18T15:41:36;53.30;;;33.35;;
12908;SDS011;6522;49.622;6.126;2022-12-18T15:44:23;51.15;;;36.22;;
12908;SDS011;6522;49.622;6.126;2022-12-18T15:47:11;48.15;;;32.35;;
12908;SDS011;6522;49.622;6.126;2022-12-18T15:49:57;52.53;;;33.35;;
12908;SDS011;6522;49.622;6.126;2022-12-18T15:52:47;53.87;;;36.78;;
12908;SDS011;6522;49.622;6.126;2022-12-18T15:55:33;49.22;;;32.80;;
12908;SDS011;6522;49.622;6.126;2022-12-18T15:58:39;55.55;;;34.00;;
12908;SDS011;6522;49.622;6.126;2022-12-18T16:01:26;44.88;;;31.15;;
12908;SDS011;6522;49.622;6.126;2022-12-18T16:04:12;58.75;;;38.70;;
12908;SDS011;6522;49.622;6.126;2022-12-18T16:06:58;60.00;;;35.75;;
12908;SDS011;6522;49.622;6.126;2022-12-18T16:09:45;56.65;;;39.17;;
12908;SDS011;6522;49.622;6.126;2022-12-18T16:12:32;55.92;;;36.75;;
12908;SDS011;6522;49.622;6.126;2022-12-18T16:15:19;51.97;;;33.42;;
12908;SDS011;6522;49.622;6.126;2022-12-18T16:18:06;56.50;;;36.42;;
12908;SDS011;6522;49.622;6.126;2022-12-18T16:20:53;57.72;;;34.72;;
12908;SDS011;6522;49.622;6.126;2022-12-18T16:23:40;55.55;;;36.20;;
12908;SDS011;6522;49.622;6.126;2022-12-18T16:26:27;54.42;;;34.80;;
12908;SDS011;6522;49.622;6.126;2022-12-18T16:29:13;59.22;;;36.95;;
12908;SDS011;6522;49.622;6.126;2022-12-18T16:32:00;49.00;;;33.22;;
12908;SDS011;6522;49.622;6.126;2022-12-18T16:34:47;62.10;;;37.45;;
12908;SDS011;6522;49.622;6.126;2022-12-18T16:37:33;52.55;;;34.22;;
12908;SDS011;6522;49.622;6.126;2022-12-18T16:40:20;52.78;;;34.00;;
12908;SDS011;6522;49.622;6.126;2022-12-18T16:43:07;58.28;;;39.17;;
12908;SDS011;6522;49.622;6.126;2022-12-18T16:45:54;50.47;;;31.27;;
12908;SDS011;6522;49.622;6.126;2022-12-18T16:48:41;54.28;;;36.85;;
12908;SDS011;6522;49.622;6.126;2022-12-18T16:51:28;57.95;;;35.72;;
12908;SDS011;6522;49.622;6.126;2022-12-18T16:54:14;52.50;;;34.05;;
12908;SDS011;6522;49.622;6.126;2022-12-18T16:57:02;58.28;;;36.50;;
12908;SDS011;6522;49.622;6.126;2022-12-18T16:59:48;56.15;;;33.80;;
12908;SDS011;6522;49.622;6.126;2022-12-18T17:02:35;57.08;;;37.63;;
12908;SDS011;6522;49.622;6.126;2022-12-18T17:05:21;53.05;;;36.65;;
12908;SDS011;6522;49.622;6.126;2022-12-18T17:08:08;55.22;;;37.30;;
12908;SDS011;6522;49.622;6.126;2022-12-18T17:10:55;58.90;;;33.75;;
12908;SDS011;6522;49.622;6.126;2022-12-18T17:13:41;58.27;;;35.27;;
12908;SDS011;6522;49.622;6.126;2022-12-18T17:16:28;61.78;;;39.38;;
12908;SDS011;6522;49.622;6.126;2022-12-18T17:19:15;63.45;;;37.75;;
12908;SDS011;6522;49.622;6.126;2022-12-18T17:22:02;59.13;;;37.28;;
12908;SDS011;6522;49.622;6.126;2022-12-18T17:24:48;54.70;;;33.50;;
12908;SDS011;6522;49.622;6.126;2022-12-18T17:27:35;55.28;;;34.28;;
12908;SDS011;6522;49.622;6.126;2022-12-18T17:30:22;54.53;;;35.28;;
12908;SDS011;6522;49.622;6.126;2022-12-18T17:33:09;54.47;;;33.80;;
12908;SDS011;6522;49.622;6.126;2022-12-18T17:35:57;64.37;;;36.17;;
12908;SDS011;6522;49.622;6.126;2022-12-18T17:38:42;59.17;;;38.15;;
12908;SDS011;6522;49.622;6.126;2022-12-18T17:41:29;52.80;;;35.13;;